Time;durP1;ratioP1;P1;durP2;ratioP2;P2;SDS_P1;SDS_P2;PMS_P1;PMS_P2;Temp;Humidity;BMP_temperature;BMP_pressure;BME280_temperature;BME280_humidity;BME280_pressure;Samples;Min_cycle;Max_cycle;Signal;HPM_P1;HPM_P2
2022/03/04 00:01:17;;;;;;;59.17;33.57;;;;;;;3.39;55.23;100611.72;6189206;22;96710;-74
2022/03/04 00:03:43;;;;;;;61.97;32.30;;;;;;;3.43;54.93;100625.53;6241154;22;96814;-74
2022/03/04 00:06:09;;;;;;;61.63;33.90;;;;;;;3.47;55.29;100629.03;6189002;22;102254;-74
2022/03/04 00:08:35;;;;;;;58.20;31.47;;;;;;;3.40;54.83;100628.13;6188184;22;101105;-74
2022/03/04 00:11:02;;;;;;;61.57;32.87;;;;;;;3.48;54.93;100625.56;6214639;22;96640;-74
2022/03/04 00:13:29;;;;;;;53.73;28.93;;;;;;;3.46;55.46;100625.56;6190355;22;96921;-74
2022/03/04 00:15:55;;;;;;;54.10;30.03;;;;;;;3.36;55.42;100592.69;6214083;22;101073;-76
2022/03/04 00:18:21;;;;;;;48.20;28.63;;;;;;;3.48;55.42;100615.16;6216015;22;101262;-74
2022/03/04 00:20:47;;;;;;;51.27;29.77;;;;;;;3.52;55.27;100628.16;6215047;22;96733;-74
2022/03/04 00:23:13;;;;;;;50.80;28.47;;;;;;;3.33;55.10;100593.53;6216535;22;96848;-74
2022/03/04 00:25:39;;;;;;;50.83;29.07;;;;;;;3.51;55.19;100631.59;6213705;22;101125;-78
2022/03/04 00:28:04;;;;;;;51.10;29.27;;;;;;;3.53;55.55;100627.28;6189733;22;101680;-74
2022/03/04 00:30:30;;;;;;;51.80;27.70;;;;;;;3.56;55.34;100632.47;6215322;22;96490;-74
2022/03/04 00:32:56;;;;;;;48.13;26.43;;;;;;;3.54;55.78;100628.16;6215318;22;97207;-74
2022/03/04 00:35:21;;;;;;;41.97;25.40;;;;;;;3.54;55.66;100626.41;6189060;22;101162;-74
2022/03/04 00:37:47;;;;;;;49.57;27.73;;;;;;;3.53;55.62;100627.28;6213627;22;97313;-74
2022/03/04 00:40:14;;;;;;;52.37;27.40;;;;;;;3.54;55.51;100634.19;6215776;22;96641;-74
2022/03/04 00:42:39;;;;;;;51.47;27.53;;;;;;;3.57;55.56;100628.13;6191211;22;97164;-78
2022/03/04 00:45:06;;;;;;;50.30;26.20;;;;;;;3.38;55.87;100602.19;6241246;22;98926;-74
2022/03/04 00:47:32;;;;;;;48.47;26.73;;;;;;;3.57;56.07;100630.75;6216215;22;97554;-74
2022/03/04 00:49:58;;;;;;;49.77;28.73;;;;;;;3.38;55.90;100591.81;6212866;22;97247;-74
2022/03/04 00:52:24;;;;;;;50.60;27.43;;;;;;;3.54;56.14;100620.34;6215596;22;96804;-74
2022/03/04 00:54:49;;;;;;;54.90;28.67;;;;;;;3.56;56.22;100624.69;6188722;22;101071;-74
2022/03/04 00:57:15;;;;;;;48.83;26.87;;;;;;;3.54;56.26;100617.75;6215644;22;97181;-74
2022/03/04 00:59:41;;;;;;;55.60;28.77;;;;;;;3.57;56.43;100617.75;6189606;22;96918;-79
2022/03/04 01:02:07;;;;;;;48.03;26.63;;;;;;;3.54;56.26;100617.75;6215959;22;96517;-74
2022/03/04 01:04:32;;;;;;;44.80;25.30;;;;;;;3.60;56.50;100621.22;6215007;22;101561;-75
2022/03/04 01:06:58;;;;;;;48.83;27.43;;;;;;;3.49;56.56;100602.22;6211413;22;97407;-75
2022/03/04 01:09:24;;;;;;;49.77;26.93;;;;;;;3.52;56.48;100609.09;6214679;22;97140;-74
2022/03/04 01:11:49;;;;;;;44.87;25.50;;;;;;;3.54;56.46;100616.03;6215507;22;96637;-74
2022/03/04 01:14:15;;;;;;;46.97;27.43;;;;;;;3.55;56.98;100614.28;6214440;22;101412;-75
2022/03/04 01:16:41;;;;;;;50.90;27.27;;;;;;;3.51;56.64;100602.19;6189603;22;100533;-76
2022/03/04 01:19:06;;;;;;;53.53;27.63;;;;;;;3.46;56.72;100591.84;6215463;22;96651;-74
2022/03/04 01:21:32;;;;;;;52.47;28.37;;;;;;;3.57;56.56;100605.63;6241591;22;97623;-74
2022/03/04 01:23:59;;;;;;;51.47;29.17;;;;;;;3.55;57.14;100606.50;6187114;22;101618;-74
2022/03/04 01:26:24;;;;;;;51.33;28.00;;;;;;;3.55;57.07;100594.41;6188592;22;101214;-74
2022/03/04 01:28:50;;;;;;;52.23;28.17;;;;;;;3.60;57.34;100608.22;6188771;22;96657;-74
2022/03/04 01:31:15;;;;;;;49.47;27.97;;;;;;;3.51;56.99;100597.00;6215395;22;96758;-75
2022/03/04 01:33:41;;;;;;;51.70;28.50;;;;;;;3.57;57.05;100605.63;6189498;22;101129;-74
2022/03/04 01:36:07;;;;;;;53.37;27.83;;;;;;;3.54;57.39;100617.75;6187563;22;101145;-75
2022/03/04 01:38:33;;;;;;;50.60;27.83;;;;;;;3.47;57.25;100603.06;6189155;22;96615;-74
2022/03/04 01:40:58;;;;;;;51.70;29.90;;;;;;;3.54;57.30;100608.25;6214366;22;96754;-74
2022/03/04 01:43:24;;;;;;;53.10;31.10;;;;;;;3.56;57.40;100603.06;6189700;22;100860;-75
2022/03/04 01:45:50;;;;;;;54.10;28.37;;;;;;;3.37;57.13;100574.53;6188188;22;101461;-74
2022/03/04 01:48:19;;;;;;;52.17;29.90;;;;;;;3.60;57.11;100597.00;6215659;22;97389;-74
2022/03/04 01:50:48;;;;;;;51.73;27.90;;;;;;;3.60;57.31;100602.19;6214399;22;97046;-74
2022/03/04 01:53:13;;;;;;;52.37;28.67;;;;;;;3.59;57.61;100600.47;6240995;22;97640;-74
2022/03/04 01:55:39;;;;;;;60.73;30.67;;;;;;;3.60;57.92;100602.19;6189565;22;101505;-74
2022/03/04 01:58:04;;;;;;;51.47;29.37;;;;;;;3.59;57.40;100592.66;6214763;22;96970;-73
2022/03/04 02:00:30;;;;;;;56.27;30.60;;;;;;;3.40;57.77;100569.34;6240380;22;96993;-74
2022/03/04 02:02:57;;;;;;;59.07;31.73;;;;;;;3.63;57.21;100600.44;6213959;22;100896;-74
2022/03/04 02:05:22;;;;;;;65.67;34.07;;;;;;;3.65;57.60;100597.00;6189111;22;101304;-73
2022/03/04 02:07:48;;;;;;;71.07;37.63;;;;;;;3.48;57.76;100573.66;6189470;22;96853;-78
2022/03/04 02:10:14;;;;;;;75.60;39.97;;;;;;;3.59;58.15;100585.75;6214474;22;96749;-74
2022/03/04 02:12:39;;;;;;;69.03;35.53;;;;;;;3.45;57.96;100558.94;6240971;22;97338;-74
2022/03/04 02:15:06;;;;;;;62.27;34.30;;;;;;;3.63;58.21;100586.59;6212746;22;100304;-74
2022/03/04 02:17:32;;;;;;;58.23;32.87;;;;;;;3.50;58.15;100565.00;6214767;22;96561;-74
2022/03/04 02:19:59;;;;;;;61.83;33.00;;;;;;;3.58;58.22;100583.16;6214517;22;96793;-74
2022/03/04 02:22:24;;;;;;;62.03;32.63;;;;;;;3.44;58.60;100551.16;6240713;22;97518;-74
2022/03/04 02:24:50;;;;;;;57.77;30.97;;;;;;;3.60;58.62;100584.00;6212604;22;100894;-78
2022/03/04 02:27:15;;;;;;;57.30;31.80;;;;;;;3.51;58.82;100573.63;6239865;22;96983;-75
2022/03/04 02:29:41;;;;;;;62.33;34.10;;;;;;;3.63;58.79;100587.44;6189196;22;96795;-74
2022/03/04 02:32:07;;;;;;;59.60;32.47;;;;;;;3.56;59.13;100596.13;6240260;22;98100;-74
2022/03/04 02:34:33;;;;;;;60.87;32.70;;;;;;;3.49;59.27;100591.81;6188888;22;100254;-74
2022/03/04 02:36:58;;;;;;;57.93;32.13;;;;;;;3.37;59.63;100573.63;6215909;22;97044;-74
2022/03/04 02:39:24;;;;;;;54.20;31.30;;;;;;;3.51;59.61;100599.59;6213617;22;97234;-74
2022/03/04 02:41:50;;;;;;;59.27;32.60;;;;;;;3.47;59.73;100592.69;6214641;22;100643;-78
2022/03/04 02:44:16;;;;;;;58.13;34.03;;;;;;;3.49;59.91;100604.81;6190535;22;101195;-74
2022/03/04 02:46:42;;;;;;;59.00;32.67;;;;;;;3.39;59.80;100596.13;6216685;22;96908;-74
2022/03/04 02:49:08;;;;;;;61.60;32.00;;;;;;;3.40;60.53;100594.41;6216521;22;97222;-74
2022/03/04 02:51:36;;;;;;;61.13;33.27;;;;;;;3.46;60.13;100597.03;6216110;22;100959;-74
2022/03/04 02:54:01;;;;;;;61.00;34.17;;;;;;;3.47;60.22;100596.16;6215799;22;101381;-74
2022/03/04 02:56:27;;;;;;;66.40;35.03;;;;;;;3.44;60.54;100592.69;6213507;22;97354;-74
2022/03/04 02:58:53;;;;;;;59.20;32.77;;;;;;;3.39;60.95;100593.53;6189504;22;97004;-77
2022/03/04 03:01:18;;;;;;;66.17;35.57;;;;;;;3.42;60.35;100602.19;6215526;22;101686;-74
2022/03/04 03:03:45;;;;;;;58.77;34.10;;;;;;;3.39;60.75;100595.28;6191302;22;101094;-74
2022/03/04 03:06:10;;;;;;;60.47;35.07;;;;;;;3.37;61.19;100603.06;6215414;22;96623;-74
2022/03/04 03:08:36;;;;;;;64.43;34.57;;;;;;;3.24;61.09;100577.97;6217250;22;96903;-74
2022/03/04 03:11:03;;;;;;;59.60;33.10;;;;;;;3.39;60.90;100603.91;6213460;22;101388;-74
2022/03/04 03:13:28;;;;;;;58.57;33.50;;;;;;;3.46;61.51;100616.91;6214563;22;100825;-74
2022/03/04 03:15:54;;;;;;;64.83;35.37;;;;;;;3.37;61.14;100605.69;6214648;22;96588;-78
2022/03/04 03:18:19;;;;;;;63.53;33.93;;;;;;;3.44;61.37;100616.06;6191176;22;96865;-74
2022/03/04 03:20:45;;;;;;;68.00;35.93;;;;;;;3.35;61.27;100599.59;6215202;22;101623;-75
2022/03/04 03:23:11;;;;;;;63.37;34.53;;;;;;;3.37;61.17;100608.28;6215311;22;100972;-74
2022/03/04 03:25:36;;;;;;;61.87;34.27;;;;;;;3.39;61.26;100603.91;6190392;22;96823;-74
2022/03/04 03:28:03;;;;;;;65.77;35.53;;;;;;;3.40;61.56;100603.06;6215400;22;96718;-74
2022/03/04 03:30:29;;;;;;;64.40;33.90;;;;;;;3.36;61.23;100590.94;6215520;22;101064;-74
2022/03/04 03:32:54;;;;;;;65.43;34.50;;;;;;;3.36;61.24;100595.28;6215491;22;101766;-77
2022/03/04 03:35:20;;;;;;;61.63;33.43;;;;;;;3.40;61.35;100608.25;6190147;22;97164;-74
2022/03/04 03:37:45;;;;;;;61.10;32.60;;;;;;;3.40;61.34;100609.97;6216310;22;96851;-74
2022/03/04 03:40:12;;;;;;;62.50;32.67;;;;;;;3.37;61.61;100609.97;6211244;22;99972;-74
2022/03/04 03:42:39;;;;;;;63.83;32.67;;;;;;;3.22;61.12;100578.84;6215921;22;101556;-74
2022/03/04 03:45:06;;;;;;;62.17;31.00;;;;;;;3.18;61.06;100571.06;6189509;22;96809;-74
2022/03/04 03:47:32;;;;;;;64.43;32.90;;;;;;;3.36;61.12;100595.28;6189836;22;96778;-74
2022/03/04 03:49:57;;;;;;;60.67;32.90;;;;;;;3.40;61.40;100613.47;6213754;22;101373;-74
2022/03/04 03:52:23;;;;;;;57.27;31.50;;;;;;;3.43;61.38;100612.56;6216292;22;97786;-74
2022/03/04 03:54:49;;;;;;;56.27;30.00;;;;;;;3.43;61.41;100620.34;6189453;22;97039;-74
2022/03/04 03:57:14;;;;;;;58.23;32.03;;;;;;;3.37;61.43;100609.97;6216353;22;97452;-73
2022/03/04 03:59:40;;;;;;;57.87;30.80;;;;;;;3.31;61.93;100599.59;6241107;22;97875;-74
2022/03/04 04:02:06;;;;;;;57.27;30.80;;;;;;;3.30;61.92;100610.84;6189563;22;101214;-74
2022/03/04 04:04:34;;;;;;;57.67;30.03;;;;;;;3.38;61.80;100616.91;6214734;22;96995;-74
2022/03/04 04:07:04;;;;;;;62.70;31.27;;;;;;;3.37;61.99;100608.28;6215757;22;97098;-74
2022/03/04 04:09:29;;;;;;;56.50;30.47;;;;;;;3.43;61.64;100619.50;6215129;22;102716;-74
2022/03/04 04:11:55;;;;;;;56.03;32.40;;;;;;;3.34;62.06;100604.78;6189759;22;100784;-78
2022/03/04 04:14:21;;;;;;;51.50;30.37;;;;;;;3.40;61.76;100612.56;6214564;22;96633;-74
2022/03/04 04:16:46;;;;;;;51.87;29.87;;;;;;;3.31;61.99;100595.25;6216255;22;96793;-74
2022/03/04 04:19:12;;;;;;;49.67;28.93;;;;;;;3.45;61.55;100608.25;6241101;22;97319;-74
2022/03/04 04:21:38;;;;;;;59.00;31.47;;;;;;;3.29;61.81;100581.44;6216653;22;97294;-74
2022/03/04 04:24:04;;;;;;;53.97;30.33;;;;;;;3.43;61.95;100607.38;6216237;22;96723;-74
2022/03/04 04:26:31;;;;;;;56.50;30.90;;;;;;;3.48;61.72;100610.84;6189571;22;97273;-75
2022/03/04 04:28:58;;;;;;;54.43;30.60;;;;;;;3.25;62.10;100579.69;6238737;22;97542;-75
2022/03/04 04:31:24;;;;;;;57.77;29.67;;;;;;;3.39;61.83;100601.31;6214006;22;97714;-74
2022/03/04 04:33:49;;;;;;;50.67;30.13;;;;;;;3.45;62.01;100602.19;6214594;22;96967;-74
2022/03/04 04:36:15;;;;;;;52.17;30.03;;;;;;;3.49;61.96;100606.50;6214807;22;96993;-73
2022/03/04 04:38:41;;;;;;;58.57;30.97;;;;;;;3.49;61.85;100606.50;6215431;22;100981;-74
2022/03/04 04:41:07;;;;;;;54.83;28.63;;;;;;;3.47;61.80;100601.34;6214351;22;97839;-75
2022/03/04 04:43:33;;;;;;;50.87;28.20;;;;;;;3.49;62.01;100604.81;6188336;22;97801;-75
2022/03/04 04:45:58;;;;;;;58.07;31.20;;;;;;;3.47;61.79;100606.53;6213238;22;97082;-78
2022/03/04 04:48:24;;;;;;;53.63;30.30;;;;;;;3.47;61.97;100603.06;6189351;22;101224;-74
2022/03/04 04:50:49;;;;;;;51.30;29.77;;;;;;;3.44;62.25;100606.53;6214531;22;101128;-75
2022/03/04 04:53:16;;;;;;;54.97;30.27;;;;;;;3.39;62.30;100601.31;6188636;22;97035;-76
2022/03/04 04:55:42;;;;;;;57.30;30.33;;;;;;;3.36;62.36;100600.47;6241592;22;96810;-74
2022/03/04 04:58:07;;;;;;;56.37;30.47;;;;;;;3.24;62.33;100580.56;6214719;22;101061;-75
2022/03/04 05:00:33;;;;;;;52.83;28.50;;;;;;;3.38;62.57;100602.19;6237149;22;97903;-75
2022/03/04 05:02:59;;;;;;;56.27;29.67;;;;;;;3.38;62.46;100598.75;6213972;22;96810;-80
2022/03/04 05:05:24;;;;;;;52.37;29.80;;;;;;;3.36;62.13;100601.31;6240698;22;96726;-75
2022/03/04 05:07:50;;;;;;;55.00;30.10;;;;;;;3.36;62.37;100606.53;6214411;22;97598;-75
2022/03/04 05:10:15;;;;;;;56.03;30.60;;;;;;;3.32;62.30;100598.75;6214258;22;100464;-74
2022/03/04 05:12:41;;;;;;;49.97;29.27;;;;;;;3.26;62.35;100586.63;6241234;22;96695;-74
2022/03/04 05:15:09;;;;;;;53.20;28.87;;;;;;;3.40;62.74;100610.88;6188921;22;96827;-74
2022/03/04 05:17:35;;;;;;;55.07;30.43;;;;;;;3.38;62.26;100604.81;6213837;22;97865;-74
2022/03/04 05:20:00;;;;;;;54.00;29.60;;;;;;;3.36;62.34;100603.94;6188346;22;100949;-79
2022/03/04 05:22:26;;;;;;;52.60;29.10;;;;;;;3.38;62.57;100604.81;6215301;22;96725;-75
2022/03/04 05:24:52;;;;;;;51.87;29.23;;;;;;;3.39;62.28;100606.50;6215254;22;97155;-74
2022/03/04 05:27:17;;;;;;;58.77;30.93;;;;;;;3.37;62.03;100602.19;6189206;22;101171;-75
2022/03/04 05:29:43;;;;;;;54.63;30.17;;;;;;;3.37;62.37;100602.19;6188704;22;100903;-74
2022/03/04 05:32:10;;;;;;;57.40;30.20;;;;;;;3.34;62.21;100594.41;6214434;22;97052;-74
2022/03/04 05:34:37;;;;;;;52.43;29.23;;;;;;;3.36;62.33;100598.72;6215094;22;97363;-74
2022/03/04 05:37:03;;;;;;;57.43;29.87;;;;;;;3.26;62.64;100590.94;6214062;22;100963;-77
2022/03/04 05:39:29;;;;;;;55.37;31.60;;;;;;;3.41;62.49;100611.72;6239412;22;97886;-75
2022/03/04 05:41:55;;;;;;;56.63;30.87;;;;;;;3.25;62.39;100586.63;6213753;22;96817;-74
2022/03/04 05:44:21;;;;;;;56.27;29.60;;;;;;;3.39;62.48;100613.44;6214037;22;97152;-75
2022/03/04 05:46:46;;;;;;;54.97;28.87;;;;;;;3.37;62.61;100610.88;6212916;22;100502;-77
2022/03/04 05:49:12;;;;;;;55.67;29.53;;;;;;;3.39;62.61;100614.31;6212772;22;101305;-78
2022/03/04 05:51:38;;;;;;;58.87;32.00;;;;;;;3.44;62.68;100623.84;6187431;22;97191;-78
2022/03/04 05:54:03;;;;;;;56.30;30.17;;;;;;;3.35;62.76;100606.53;6214147;22;96840;-77
2022/03/04 05:56:29;;;;;;;54.63;29.50;;;;;;;3.36;62.52;100624.69;6213043;22;101340;-74
2022/03/04 05:58:55;;;;;;;55.00;29.63;;;;;;;3.36;62.78;100621.22;6188093;22;100935;-74
2022/03/04 06:01:21;;;;;;;54.07;28.87;;;;;;;3.43;62.81;100627.28;6238023;22;97198;-74
2022/03/04 06:03:46;;;;;;;52.00;29.80;;;;;;;3.42;62.82;100630.75;6213042;22;96740;-75
2022/03/04 06:06:13;;;;;;;59.50;31.07;;;;;;;3.28;62.91;100595.28;6186202;22;101498;-74
2022/03/04 06:08:39;;;;;;;50.80;29.30;;;;;;;3.30;62.68;100606.53;6239773;22;97555;-74
2022/03/04 06:11:08;;;;;;;50.00;29.87;;;;;;;3.45;62.43;100634.19;6213020;22;96589;-76
2022/03/04 06:13:35;;;;;;;53.10;30.93;;;;;;;3.49;62.62;100637.66;6240974;22;96743;-73
2022/03/04 06:16:02;;;;;;;52.57;29.80;;;;;;;3.51;62.52;100639.38;6239248;22;97453;-80
2022/03/04 06:18:27;;;;;;;55.47;29.00;;;;;;;3.50;62.55;100645.47;6189416;22;101183;-82
2022/03/04 06:20:53;;;;;;;57.37;31.70;;;;;;;3.47;62.91;100639.41;6215614;22;96903;-79
2022/03/04 06:23:18;;;;;;;52.83;29.97;;;;;;;3.49;62.81;100648.03;6242229;22;97012;-81
2022/03/04 06:25:44;;;;;;;54.63;30.33;;;;;;;3.46;62.87;100641.16;6215475;22;101222;-79
2022/03/04 06:28:10;;;;;;;56.03;31.23;;;;;;;3.53;62.59;100660.16;6216688;22;101073;-77
2022/03/04 06:30:39;;;;;;;52.23;30.50;;;;;;;3.53;62.69;100666.22;6216782;22;97137;-77
2022/03/04 06:35:50;;;;;;;55.63;31.07;;;;;;;3.55;62.31;100668.81;6242645;22;97510;-77
2022/03/04 06:38:17;;;;;;;59.70;31.63;;;;;;;3.47;62.75;100663.63;6216892;22;97794;-84
2022/03/04 06:40:43;;;;;;;59.13;33.17;;;;;;;3.55;62.42;100674.88;6191788;22;97085;-89
2022/03/04 06:43:09;;;;;;;58.87;31.07;;;;;;;3.52;62.99;100664.50;6192198;22;96866;-82
2022/03/04 06:45:35;;;;;;;56.90;29.60;;;;;;;3.53;63.21;100662.78;6191365;22;101609;-77
2022/03/04 06:48:01;;;;;;;58.27;31.87;;;;;;;3.57;62.80;100669.69;6217094;22;100896;-77
2022/03/04 06:50:27;;;;;;;59.20;31.00;;;;;;;3.58;63.04;100671.44;6216274;22;96723;-77
2022/03/04 06:52:53;;;;;;;61.80;33.00;;;;;;;3.61;62.95;100677.47;6217308;22;96809;-78
2022/03/04 06:55:18;;;;;;;62.67;32.43;;;;;;;3.61;62.79;100674.03;6215468;22;101275;-80
2022/03/04 06:57:46;;;;;;;58.80;30.83;;;;;;;3.59;62.93;100673.16;6216888;22;97411;-78
2022/03/04 07:00:12;;;;;;;64.20;33.73;;;;;;;3.65;62.84;100680.06;6191241;22;96622;-79
2022/03/04 07:02:38;;;;;;;60.03;30.90;;;;;;;3.60;62.73;100677.47;6243452;22;96780;-78
2022/03/04 07:05:05;;;;;;;57.83;32.10;;;;;;;3.62;63.08;100679.19;6215961;22;100754;-78
2022/03/04 07:07:31;;;;;;;59.27;31.07;;;;;;;3.68;62.85;100680.06;6190710;22;101418;-78
2022/03/04 07:09:56;;;;;;;62.30;34.53;;;;;;;3.69;63.01;100686.97;6243126;22;96771;-78
2022/03/04 07:12:22;;;;;;;62.13;32.67;;;;;;;3.64;63.30;100679.22;6217140;22;96899;-78
2022/03/04 07:14:47;;;;;;;59.03;31.23;;;;;;;3.72;63.00;100686.97;6215919;22;97311;-78
2022/03/04 07:17:14;;;;;;;64.77;32.40;;;;;;;3.70;63.09;100699.97;6215293;22;101483;-79
2022/03/04 07:19:40;;;;;;;57.23;30.83;;;;;;;3.75;63.02;100697.38;6241194;22;96691;-81
2022/03/04 07:22:06;;;;;;;58.40;31.67;;;;;;;3.49;62.58;100650.63;6243312;22;96619;-78
2022/03/04 07:24:32;;;;;;;55.80;31.97;;;;;;;3.47;63.14;100640.28;6215659;22;102305;-79
2022/03/04 07:26:58;;;;;;;61.20;32.03;;;;;;;3.62;63.29;100663.63;6215609;22;97378;-78
2022/03/04 07:29:26;;;;;;;63.83;32.17;;;;;;;3.81;63.27;100690.47;6189903;22;97233;-79
2022/03/04 07:31:53;;;;;;;53.80;31.73;;;;;;;3.86;63.40;100693.03;6215849;22;96766;-79
2022/03/04 07:34:20;;;;;;;55.90;30.20;;;;;;;3.91;63.32;100696.50;6239356;22;98217;-81
2022/03/04 07:36:46;;;;;;;56.67;30.90;;;;;;;3.72;63.30;100661.00;6214323;22;100812;-79
2022/03/04 07:39:12;;;;;;;61.07;32.63;;;;;;;3.83;63.18;100677.47;6240484;22;96506;-78
2022/03/04 07:41:38;;;;;;;62.93;32.90;;;;;;;3.81;63.28;100671.38;6216654;22;96744;-78
2022/03/04 07:44:04;;;;;;;56.43;32.87;;;;;;;3.98;63.26;100698.22;6216715;22;101462;-78
2022/03/04 07:46:30;;;;;;;65.50;32.80;;;;;;;4.03;63.50;100701.69;6215788;22;97423;-79
2022/03/04 07:48:56;;;;;;;57.37;31.53;;;;;;;3.89;63.05;100682.66;6242275;22;96668;-78
2022/03/04 07:51:21;;;;;;;62.50;34.93;;;;;;;4.05;62.90;100707.75;6212249;22;97064;-82
2022/03/04 07:53:47;;;;;;;62.03;33.60;;;;;;;4.05;62.93;100704.28;6215704;22;100998;-80
2022/03/04 07:56:13;;;;;;;63.50;34.60;;;;;;;4.09;63.13;100703.41;6214650;22;101758;-79
2022/03/04 07:58:39;;;;;;;61.40;31.93;;;;;;;4.11;63.30;100713.81;6190718;22;97131;-85
2022/03/04 08:01:05;;;;;;;62.03;33.00;;;;;;;3.92;62.95;100677.44;6191473;22;97296;-83
2022/03/04 08:03:32;;;;;;;61.50;32.67;;;;;;;3.93;63.27;100680.94;6217378;22;101489;-83
2022/03/04 08:05:58;;;;;;;56.43;31.03;;;;;;;4.16;63.23;100715.53;6191231;22;101139;-83
2022/03/04 08:08:24;;;;;;;61.93;33.33;;;;;;;4.04;63.33;100695.63;6188261;22;97223;-85
2022/03/04 08:10:50;;;;;;;60.07;32.60;;;;;;;4.17;63.27;100709.47;6192491;22;97502;-87
2022/03/04 08:13:16;;;;;;;65.07;33.13;;;;;;;4.05;62.92;100686.97;6217106;22;101449;-90
2022/03/04 08:15:41;;;;;;;62.97;32.40;;;;;;;3.90;63.16;100655.81;6191214;22;100048;-89
2022/03/04 08:18:07;;;;;;;56.00;31.73;;;;;;;4.28;63.41;100719.84;6193139;22;96762;-90
2022/03/04 08:20:33;;;;;;;65.27;34.83;;;;;;;4.12;63.37;100686.94;6191215;22;96891;-86
2022/03/04 08:22:59;;;;;;;62.93;34.90;;;;;;;3.66;63.29;100616.88;6191415;22;101302;-89
2022/03/04 08:25:25;;;;;;;65.47;33.93;;;;;;;3.97;63.65;100667.91;6217066;22;101109;-88
2022/03/04 08:27:51;;;;;;;56.73;33.37;;;;;;;3.65;63.06;100623.81;6190383;22;96548;-88
2022/03/04 08:30:16;;;;;;;64.27;33.10;;;;;;;4.11;62.93;100704.28;6216612;22;96847;-75
2022/03/04 08:32:42;;;;;;;66.57;35.07;;;;;;;4.23;63.23;100716.38;6242629;22;97357;-75
2022/03/04 08:35:08;;;;;;;62.43;35.27;;;;;;;3.98;63.08;100685.22;6215187;22;99118;-78
2022/03/04 08:37:35;;;;;;;66.63;34.77;;;;;;;4.27;63.04;100731.94;6216200;22;96751;-77
2022/03/04 08:40:06;;;;;;;60.50;33.17;;;;;;;4.27;63.31;100731.94;6241460;22;96822;-79
2022/03/04 08:42:32;;;;;;;64.13;33.60;;;;;;;4.17;63.41;100727.66;6241917;22;98451;-78
2022/03/04 08:44:57;;;;;;;63.20;33.40;;;;;;;4.30;63.22;100742.38;6215939;22;98299;-82
2022/03/04 08:47:23;;;;;;;63.20;35.20;;;;;;;4.31;63.37;100738.91;6216640;22;96535;-86
2022/03/04 08:49:49;;;;;;;64.23;33.77;;;;;;;4.37;63.46;100738.03;6190364;22;96943;-77
2022/03/04 08:52:14;;;;;;;62.73;33.43;;;;;;;4.36;63.20;100738.00;6241797;22;97318;-86
2022/03/04 08:54:40;;;;;;;63.47;34.37;;;;;;;4.43;63.47;100744.94;6215107;22;100952;-87
2022/03/04 08:57:06;;;;;;;64.70;34.30;;;;;;;4.31;63.45;100725.03;6188149;22;96759;-86
2022/03/04 08:59:32;;;;;;;63.90;33.80;;;;;;;4.31;63.33;100725.91;6241612;22;96772;-86
2022/03/04 09:01:58;;;;;;;58.80;33.23;;;;;;;4.49;62.95;100744.94;6190016;22;101059;-87
2022/03/04 09:04:25;;;;;;;62.37;32.53;;;;;;;4.47;63.16;100749.25;6190316;22;101072;-86
2022/03/04 09:06:50;;;;;;;59.57;33.53;;;;;;;4.36;63.50;100733.66;6242186;22;96630;-88
2022/03/04 09:09:16;;;;;;;67.63;34.40;;;;;;;4.38;63.35;100734.53;6216259;22;96904;-87
2022/03/04 09:11:43;;;;;;;59.83;34.17;;;;;;;4.51;63.15;100757.06;6189721;22;101694;-86
2022/03/04 09:14:09;;;;;;;62.43;33.20;;;;;;;4.02;63.19;100660.13;6190213;22;100272;-86
2022/03/04 09:16:35;;;;;;;60.23;34.73;;;;;;;4.57;63.18;100755.28;6189819;22;96706;-88
2022/03/04 09:19:00;;;;;;;59.33;34.10;;;;;;;4.50;63.23;100736.25;6189700;22;96824;-88
2022/03/04 09:21:26;;;;;;;57.93;33.33;;;;;;;4.16;63.25;100696.47;6187554;22;100224;-87
2022/03/04 09:23:52;;;;;;;62.27;34.67;;;;;;;4.59;63.32;100763.97;6190304;22;99873;-87
2022/03/04 09:26:18;;;;;;;58.77;34.47;;;;;;;4.61;63.46;100763.09;6188894;22;97046;-87
2022/03/04 09:28:44;;;;;;;58.10;33.77;;;;;;;4.73;63.43;100775.19;6215854;22;96852;-87
2022/03/04 09:31:09;;;;;;;57.27;32.47;;;;;;;4.63;63.40;100726.69;6215562;22;100813;-87
2022/03/04 09:33:36;;;;;;;63.07;33.40;;;;;;;4.93;63.13;100762.97;6190364;22;100103;-87
2022/03/04 09:36:03;;;;;;;62.83;33.10;;;;;;;5.03;63.41;100758.59;6190765;22;96679;-87
2022/03/04 09:38:29;;;;;;;54.57;31.80;;;;;;;4.97;63.20;100732.59;6191082;22;96632;-87
2022/03/04 09:40:54;;;;;;;61.30;33.30;;;;;;;5.18;63.01;100750.75;6217210;22;96772;-87
2022/03/04 09:43:22;;;;;;;58.47;32.97;;;;;;;5.28;62.87;100750.69;6190989;22;100838;-87
2022/03/04 09:45:49;;;;;;;56.67;33.20;;;;;;;5.17;62.98;100712.56;6191717;22;96881;-87
2022/03/04 09:48:16;;;;;;;56.93;32.67;;;;;;;5.45;62.16;100746.25;6218001;22;96865;-87
2022/03/04 09:50:44;;;;;;;57.90;31.03;;;;;;;5.51;62.37;100741.00;6192068;22;101100;-86
2022/03/04 09:53:11;;;;;;;55.67;30.80;;;;;;;5.18;62.76;100677.00;6192013;22;101250;-84
2022/03/04 09:55:38;;;;;;;50.83;31.47;;;;;;;5.37;62.43;100694.22;6191440;22;96715;-84
2022/03/04 09:58:12;;;;;;;54.43;30.80;;;;;;;5.48;61.62;100712.38;6190772;22;97510;-83
2022/03/04 10:00:38;;;;;;;48.90;28.43;;;;;;;5.69;61.41;100734.78;6191362;22;101295;-84
2022/03/04 10:03:05;;;;;;;50.53;29.27;;;;;;;5.70;61.50;100727.81;6192278;22;101068;-85
2022/03/04 10:05:31;;;;;;;56.60;31.33;;;;;;;5.62;61.45;100707.94;6191018;22;96758;-84
2022/03/04 10:07:56;;;;;;;58.70;31.00;;;;;;;5.92;61.61;100749.38;6191247;22;96847;-84
2022/03/04 10:10:22;;;;;;;50.37;29.20;;;;;;;5.67;61.50;100700.94;6190447;22;101326;-84
2022/03/04 10:12:49;;;;;;;52.37;29.17;;;;;;;5.98;61.23;100752.81;6190311;22;101001;-84
2022/03/04 10:15:15;;;;;;;47.03;26.87;;;;;;;5.80;61.06;100725.16;6217129;22;96952;-84
2022/03/04 10:17:56;;;;;;;47.90;27.90;;;;;;;5.96;60.91;100748.50;6215981;22;97285;-84
2022/03/04 10:20:34;;;;;;;41.50;25.83;;;;;;;6.00;60.60;100738.06;6190806;22;101360;-84
2022/03/04 10:23:23;;;;;;;43.33;25.10;;;;;;;6.13;60.55;100741.41;6190421;22;101171;-84
2022/03/04 10:25:59;;;;;;;44.37;25.47;;;;;;;6.05;60.35;100731.06;6191234;22;97130;-84
2022/03/04 10:28:30;;;;;;;41.37;23.80;;;;;;;6.15;60.38;100752.69;6189910;22;96764;-84
2022/03/04 10:30:57;;;;;;;38.70;24.10;;;;;;;6.12;60.54;100752.72;6190478;22;101880;-84
2022/03/04 10:33:28;;;;;;;43.00;23.30;;;;;;;6.13;60.01;100755.28;6191404;22;99736;-84
2022/03/04 10:36:11;;;;;;;44.63;24.43;;;;;;;6.11;60.21;100758.81;6191365;22;97374;-84
2022/03/04 10:38:38;;;;;;;49.03;25.80;;;;;;;6.10;59.88;100757.94;6190838;22;97085;-84
2022/03/04 10:41:24;;;;;;;45.43;25.80;;;;;;;5.85;60.08;100712.97;6186808;22;99739;-85
2022/03/04 10:43:51;;;;;;;43.87;25.00;;;;;;;6.01;59.72;100744.13;6213209;22;100980;-83
2022/03/04 10:46:17;;;;;;;43.27;24.73;;;;;;;5.99;59.87;100740.66;6237467;22;97990;-84
2022/03/04 10:48:55;;;;;;;41.30;24.43;;;;;;;5.87;59.56;100720.75;6188914;22;97273;-86
2022/03/04 10:51:39;;;;;;;35.10;20.90;;;;;;;5.76;59.90;100718.25;6187013;22;101879;-85
2022/03/04 10:54:18;;;;;;;35.57;21.80;;;;;;;5.88;59.36;100757.22;6240809;22;101756;-83
2022/03/04 10:56:51;;;;;;;36.60;21.47;;;;;;;5.87;59.68;100755.47;6188315;22;96684;-85
2022/03/04 10:59:18;;;;;;;37.63;22.87;;;;;;;5.77;59.28;100743.41;6211647;22;96598;-84
2022/03/04 11:01:55;;;;;;;38.20;22.03;;;;;;;5.73;59.33;100746.03;6238511;22;97995;-89
2022/03/04 11:04:20;;;;;;;37.63;21.77;;;;;;;5.73;59.36;100749.53;6243561;22;97924;-89
2022/03/04 11:06:47;;;;;;;37.90;21.90;;;;;;;5.66;59.52;100745.22;6213122;22;96658;-90
2022/03/04 11:09:23;;;;;;;35.53;21.97;;;;;;;5.56;59.89;100731.41;6192030;22;96858;-89
2022/03/04 11:11:51;;;;;;;40.93;23.17;;;;;;;5.71;59.67;100763.44;6243807;22;98374;-88
2022/03/04 11:14:18;;;;;;;36.67;21.63;;;;;;;5.69;59.81;100758.22;6243417;22;97849;-88